Winchester, MA

2:58 PM EDT on September 17, 2014 (GMT -0400)
woburn | Change Station
CLOSE
Current Station
Personal Weather Station
Location: Woburn, MA
Elevation: 115 ft
Nearby Weather Stations

Elev 115 ft 42.48 °N, 71.15 °W | Updated 37 seconds ago

Partly Cloudy
Partly Cloudy
70.2 °F
Feels Like 77 °F
N
1.1
Wind Variable Wind from North
Gusts 2.0 mph

Today
High -- | Low -- °F
--% Chance of Precip.
Yesterday
High -- | Low -- °F
Precip. -- in
6:26 AM 6:50 PM
Waning Crescent, 34% visible
Pressure 29.95 in
Visibility 10.0 miles
Clouds Scattered Clouds 5000 ft
Heat Index 77 °F
Dew Point 48 °F
Humidity 46%
Rainfall 0.00 in
Snow Depth Not available.
UV 6 out of 12
Pollen 3.40 out of 12
PM2.5 Moderate
Flu Activity Not available.
METAR KBED 171756Z 21006KT 10SM SCT050 21/07 A2995

More Conditions Fewer Conditions

Pressure 29.95 in
Visibility 10.0 miles
Clouds Scattered Clouds 5000 ft
Heat Index 77 °F
Dew Point 48 °F
Humidity 46%
Rainfall 0.00 in
Snow Depth Not available.
UV 6 out of 12
Pollen 3.40 out of 12
PM2.5 Moderate
Flu Activity Not available.
METAR KBED 171756Z 21006KT 10SM SCT050 21/07 A2995

More Conditions Fewer Conditions

10-Day Weather Forecast

Almanac

Astronomy

Sep. 17, 2014 Rise Set
Actual Time 6:26 AM EDT 6:50 PM EDT
Civil Twilight 5:58 AM EDT 7:18 PM EDT
Nautical Twilight 5:25 AM EDT 7:52 PM EDT
Astronomical Twilight 4:51 AM EDT 8:26 PM EDT
Moon 12:18 AM EDT 3:03 PM EDT
Length of Visible Light 13h 20m
Length of Day
12h 24m
Tomorrow will be 2m 50s shorter.
Waning Crescent, 34% of the Moon is Illuminated
Today
Waning Crescent
Sep 24
New
Oct 1
First Quarter
Oct 8
Full
Oct 15
Last Quarter

Today's Extremes

State Highs State Lows

Community

WunderPhotos

Upload Photos

1,754,127 photos uploaded!

WunderBlogs® & News

Nearby

Air Quality

  Air Quality AQ Index Pollutant
Yesterday Good
PM2.5
Yesterday Good
OZONE
Current Moderate
PM2.5
Wednesday Good
PM2.5
Wednesday Good
OZONE

Snow Depth

Station Depth Elevation
No new snow has been reported.

Earthquake Activity

City Distance Mag. Time & Date
No recent earthquake activity has been reported nearby.
Minimum magnitude displayed is 2.5.

Coastal Water Temperatures

Place Temperature
Boston, MA 64.0 °F
Providence, RI 69.1 °F
Fall River, MA 71.1 °F
Conimicut Light, RI 69.1 °F

Nearby Weather Stations